Time;durP1;ratioP1;P1;durP2;ratioP2;P2;SDS_P1;SDS_P2;PMS_P1;PMS_P2;Temp;Humidity;BMP_temperature;BMP_pressure;BME280_temperature;BME280_humidity;BME280_pressure;Samples;Min_cycle;Max_cycle;Signal;HPM_P1;HPM_P2
2023/12/19 08:25:43;;;;;;;11.27;8.10;;;4.20;94.70;;;4.29;60.14;99771.59;6008839;23;98368;31
2023/12/19 08:49:44;;;;;;;16.50;8.63;;;3.20;94.40;;;4.24;60.22;99736.75;4883774;28;114393;-87
2023/12/19 09:04:04;;;;;;;10.03;6.77;;;4.00;95.00;;;4.22;61.12;99752.63;5535231;23;97855;-87
2023/12/19 09:11:45;;;;;;;14.93;8.03;;;2.60;94.40;;;4.31;61.16;99726.50;4871635;29;124405;-86
2023/12/19 09:14:46;;;;;;;15.20;8.50;;;1.70;94.00;;;4.27;60.37;99730.81;4861851;28;114439;-87
2023/12/19 09:18:16;;;;;;;14.27;8.10;;;2.00;94.80;;;4.31;61.09;99731.16;4836922;28;114609;-86
2023/12/19 09:23:48;;;;;;;15.37;7.87;;;4.10;95.00;;;4.31;60.76;99710.09;5429973;23;98325;-86
2023/12/19 09:26:59;;;;;;;15.43;9.33;;;4.10;95.50;;;4.35;60.99;99724.94;4823205;29;114654;-88
2023/12/19 09:30:59;;;;;;;14.23;7.83;;;1.80;94.10;;;4.40;60.72;99714.06;4829846;29;114596;-88
2023/12/19 09:34:56;;;;;;;11.07;7.93;;;4.40;95.20;;;4.48;61.38;99698.31;4856452;29;123514;-87
2023/12/19 09:38:38;;;;;;;15.90;9.40;;;3.60;94.80;;;4.51;60.70;99686.84;4805361;29;124430;-87
2023/12/19 09:42:20;;;;;;;12.57;8.40;;;3.00;94.60;;;4.53;60.91;99674.56;4772643;29;114863;-89
2023/12/19 09:50:11;;;;;;;12.77;9.17;;;2.10;94.20;;;4.72;60.39;99683.31;4823839;29;124639;-86
2023/12/19 09:54:01;;;;;;;15.20;8.87;;;2.90;94.50;;;4.75;60.27;99696.50;4805978;29;123510;-87
2023/12/19 10:36:12;;;;;;;15.77;9.87;;;4.90;95.10;;;5.16;60.08;99666.09;4992852;23;98719;-87
2023/12/19 10:39:49;;;;;;;15.80;9.97;;;8.00;96.60;;;5.12;60.35;99649.34;4862279;29;123681;-87
2023/12/19 10:43:00;;;;;;;17.70;10.43;;;4.90;95.00;;;5.06;60.40;99650.38;4758560;29;113416;-88
2023/12/19 10:45:51;;;;;;;14.20;9.23;;;3.30;94.30;;;5.05;59.90;99641.34;4707163;29;113741;-86
2023/12/19 10:49:07;;;;;;;13.10;8.80;;;2.90;94.10;;;5.01;60.49;99620.19;4669034;29;125939;-88
2023/12/19 10:52:34;;;;;;;14.80;10.00;;;4.70;94.90;;;4.98;59.92;99616.06;4694651;29;124566;-85
2023/12/19 11:38:03;;;;;;;16.30;10.43;;;2.90;94.00;;;5.42;60.37;99557.59;4872307;28;124872;-86
2023/12/19 11:42:01;;;;;;;15.97;10.70;;;3.10;94.10;;;5.54;59.20;99552.78;4852422;28;115183;-86
2023/12/19 11:48:19;;;;;;;15.37;8.87;;;5.30;94.70;;;5.75;59.71;99559.28;4898406;28;97581;-87
2023/12/19 12:18:50;;;;;;;18.37;10.70;;;6.80;93.50;;;7.18;54.95;99487.78;4873801;29;97115;-87
2023/12/19 12:22:38;;;;;;;20.67;10.50;;;8.00;93.20;;;7.00;55.00;99489.94;4878336;28;122503;-86
2023/12/19 12:29:23;;;;;;;13.60;9.53;;;7.90;93.20;;;6.64;55.37;99473.38;4880146;28;115418;-87
2023/12/19 12:32:45;;;;;;;14.10;9.60;;;6.50;92.60;;;6.58;55.96;99471.72;4896997;28;113240;-87
2023/12/19 12:36:08;;;;;;;12.70;8.47;;;4.70;92.00;;;6.73;57.21;99456.38;4886629;28;124093;-87
2023/12/19 12:44:11;;;;;;;12.93;8.20;;;6.80;93.60;;;6.88;56.36;99436.34;4848887;29;114767;-87
2023/12/19 12:47:03;;;;;;;15.70;9.03;;;6.70;93.30;;;6.93;56.69;99420.72;4820442;23;114682;-87
2023/12/19 12:49:53;;;;;;;12.47;8.70;;;6.60;93.80;;;7.05;56.71;99420.44;4841576;28;122387;-87
2023/12/19 12:52:52;;;;;;;11.63;7.30;;;6.80;93.80;;;7.19;56.49;99402.28;4805437;29;123826;-87
2023/12/19 12:55:22;;;;;;;11.07;7.50;;;7.00;93.70;;;7.24;56.90;99398.72;4801753;29;113963;-87
2023/12/19 12:58:36;;;;;;;13.57;8.33;;;7.00;94.30;;;7.28;56.61;99397.06;4826438;29;112416;-88
2023/12/19 13:01:47;;;;;;;12.03;7.77;;;7.00;93.60;;;7.25;56.19;99403.09;4799265;29;123222;-87
2023/12/19 13:04:17;;;;;;;13.70;8.37;;;6.90;93.40;;;7.26;56.16;99402.03;4773626;29;124313;-87
2023/12/19 13:07:05;;;;;;;15.77;8.47;;;8.00;93.90;;;7.25;55.92;99387.47;4761355;29;113826;-86
2023/12/19 13:10:07;;;;;;;13.13;9.10;;;6.90;93.10;;;7.17;55.50;99376.19;4772342;29;113966;-86
2023/12/19 13:13:20;;;;;;;15.40;9.27;;;7.20;93.00;;;7.10;55.45;99370.97;4769568;29;122695;-87
2023/12/19 13:16:04;;;;;;;11.23;8.17;;;6.90;92.90;;;7.05;55.57;99355.31;4756761;29;122166;-87
2023/12/19 13:18:39;;;;;;;15.60;9.23;;;6.90;92.90;;;7.05;55.48;99359.97;4716078;29;111975;-86
2023/12/19 13:21:32;;;;;;;11.77;7.80;;;6.10;93.00;;;6.99;55.54;99359.16;4717908;29;111902;-86
2023/12/19 13:24:37;;;;;;;13.30;8.10;;;6.80;92.70;;;6.95;55.79;99357.22;4740384;29;123325;-86
2023/12/19 13:27:33;;;;;;;9.67;6.63;;;6.30;92.50;;;6.96;55.53;99365.22;4751337;29;96691;-87
2023/12/19 13:30:38;;;;;;;11.00;7.80;;;4.20;91.70;;;6.90;55.57;99360.78;4755117;29;112952;-86
2023/12/19 13:33:28;;;;;;;16.10;8.50;;;7.00;92.60;;;6.89;55.63;99367.41;4745042;29;112136;-86
2023/12/19 13:36:31;;;;;;;11.33;7.80;;;6.80;92.90;;;6.85;55.36;99369.03;4720132;29;124178;-85
2023/12/19 13:39:19;;;;;;;12.63;8.53;;;8.50;93.40;;;6.76;55.43;99366.00;4779035;29;123799;-86
2023/12/19 13:42:16;;;;;;;13.67;7.97;;;6.70;92.50;;;6.68;55.54;99369.31;4772199;29;113485;-86
2023/12/19 13:45:36;;;;;;;11.70;7.43;;;4.00;91.40;;;6.68;55.79;99368.47;4772460;29;113873;-86
2023/12/19 13:48:04;;;;;;;10.50;6.90;;;6.80;92.60;;;6.67;56.12;99355.88;4732415;29;123519;-86
2023/12/19 13:51:06;;;;;;;10.33;6.27;;;6.90;93.10;;;6.64;56.06;99343.50;4763307;29;122381;-86
2023/12/19 13:53:54;;;;;;;10.40;7.60;;;3.90;91.50;;;6.61;55.70;99333.06;4765895;29;114339;-86
2023/12/19 13:57:02;;;;;;;9.80;6.73;;;4.60;92.20;;;6.58;56.02;99331.69;4780215;29;113043;-86
2023/12/19 14:00:14;;;;;;;13.07;7.47;;;6.50;92.60;;;6.59;56.03;99332.50;4747379;29;122378;-86
2023/12/19 14:03:45;;;;;;;10.10;6.90;;;5.40;92.60;;;6.54;56.10;99321.53;4665458;30;123011;-87
2023/12/19 14:07:21;;;;;;;9.60;6.70;;;4.40;91.80;;;6.45;56.01;99315.75;4664307;30;114678;-86
2023/12/19 14:14:25;;;;;;;11.27;7.07;;;4.10;92.40;;;6.43;57.35;99317.94;4665098;30;125160;-88
2023/12/19 14:18:08;;;;;;;13.30;7.90;;;6.50;93.10;;;6.40;56.72;99315.75;4663663;30;124428;-88
2023/12/19 14:21:54;;;;;;;8.30;5.00;;;6.50;93.10;;;6.38;56.87;99315.19;4646281;30;114134;-88
2023/12/19 14:33:29;;;;;;;9.40;6.37;;;6.30;93.00;;;6.51;56.66;99317.41;4988455;23;97658;-86
2023/12/19 14:37:16;;;;;;;10.63;6.80;;;6.70;93.10;;;6.48;56.44;99315.22;4863577;29;114602;-86
2023/12/19 14:50:08;;;;;;;12.00;7.40;;;5.20;92.30;;;6.32;56.68;99322.59;5663932;23;98378;-87
2023/12/19 15:16:04;;;;;;;13.70;7.63;;;6.10;92.90;;;6.30;56.21;99296.50;5081984;23;98229;-85
2023/12/19 15:19:37;;;;;;;13.93;6.83;;;6.20;93.00;;;6.26;56.83;99282.53;4868665;28;123293;-86
2023/12/19 15:22:49;;;;;;;10.07;6.40;;;9.00;94.10;;;6.31;56.62;99292.66;4861558;29;114386;-86
2023/12/19 15:26:13;;;;;;;9.97;6.17;;;6.10;93.00;;;6.35;56.82;99288.28;4827597;29;113016;-85
2023/12/19 15:29:04;;;;;;;10.83;6.70;;;5.70;93.10;;;6.38;56.20;99298.72;4815239;29;124550;-86
2023/12/19 15:31:59;;;;;;;8.70;6.10;;;4.70;92.90;;;6.39;56.44;99305.84;4820437;29;123867;-84
2023/12/19 15:34:50;;;;;;;9.70;6.13;;;6.20;93.30;;;6.39;56.31;99294.88;4819048;29;116754;-85
2023/12/19 15:37:31;;;;;;;10.17;6.37;;;4.60;92.40;;;6.35;56.53;99291.84;4812607;29;112397;-85
2023/12/19 15:40:16;;;;;;;10.93;6.20;;;4.80;92.50;;;6.37;56.33;99297.09;4820464;29;122450;-86
2023/12/19 15:43:18;;;;;;;11.97;7.00;;;6.40;93.30;;;6.36;56.69;99296.25;4836366;29;123174;-87
2023/12/19 15:46:13;;;;;;;12.30;6.30;;;6.20;93.10;;;6.40;56.74;99296.53;4818716;29;114947;-86
2023/12/19 15:49:17;;;;;;;10.23;6.37;;;6.40;93.70;;;6.40;56.53;99305.59;4749725;29;113342;-85
2023/12/19 15:52:10;;;;;;;11.43;6.50;;;3.70;92.40;;;6.41;56.63;99303.66;4754530;29;123953;-84
2023/12/19 15:55:36;;;;;;;10.20;6.73;;;5.10;92.70;;;6.45;56.56;99310.25;4763741;29;124452;-85
2023/12/19 15:58:30;;;;;;;9.40;6.20;;;5.30;93.30;;;6.46;56.44;99306.41;4737644;29;113105;-84
2023/12/19 16:01:12;;;;;;;10.83;6.73;;;6.50;93.30;;;6.46;56.29;99298.19;4756035;29;113532;-86
2023/12/19 16:03:57;;;;;;;9.87;6.70;;;8.80;94.40;;;6.49;56.28;99294.06;4744641;29;122947;-86
2023/12/19 16:06:39;;;;;;;12.00;6.87;;;6.60;94.10;;;6.50;56.83;99292.97;4745322;29;123211;-86
2023/12/19 16:09:36;;;;;;;10.53;7.40;;;9.50;94.80;;;6.49;56.37;99278.41;4731955;29;113473;-85
2023/12/19 16:12:53;;;;;;;11.90;7.57;;;4.90;92.90;;;6.52;56.60;99261.41;4747051;29;114494;-86
2023/12/19 16:35:26;;;;;;;9.47;5.83;;;6.90;93.40;;;6.46;56.98;99246.03;4884203;28;124767;-86
2023/12/19 16:38:08;;;;;;;10.10;6.53;;;6.60;93.20;;;6.48;56.58;99249.34;4828974;29;113579;-85
2023/12/19 16:41:33;;;;;;;9.90;5.60;;;6.30;93.50;;;6.50;56.55;99241.66;4860306;29;114857;-86
2023/12/19 16:45:04;;;;;;;9.20;6.23;;;4.40;92.50;;;6.53;56.75;99235.59;4798104;29;124762;-86
2023/12/19 16:48:11;;;;;;;9.93;6.90;;;6.30;93.20;;;6.52;56.32;99227.63;4780982;29;123294;-86
2023/12/19 16:51:41;;;;;;;8.80;5.87;;;6.50;93.10;;;6.48;56.33;99221.88;4751837;29;114861;-86
2023/12/19 16:59:09;;;;;;;11.60;6.23;;;5.10;92.50;;;6.45;56.42;99210.59;4747911;29;125065;-86
2023/12/19 17:36:51;;;;;;;12.90;7.43;;;6.20;92.80;;;6.46;55.93;99176.59;5255688;23;97709;-87
2023/12/19 17:40:48;;;;;;;10.67;6.07;;;5.10;92.20;;;6.42;55.88;99159.84;4863088;28;114482;-85
2023/12/19 17:48:29;;;;;;;10.50;6.10;;;7.40;93.20;;;6.43;55.92;99145.03;4805053;29;125090;-87
2023/12/19 18:07:38;;;;;;;12.30;7.27;;;4.40;92.00;;;6.39;56.11;99091.78;4862181;28;115285;-86
2023/12/19 18:15:09;;;;;;;10.93;6.53;;;4.30;91.80;;;6.36;55.92;99070.38;4862749;28;124965;-86
2023/12/19 18:35:45;;;;;;;18.17;8.03;;;6.10;92.70;;;6.35;55.88;98997.41;4876958;28;97978;-86
2023/12/19 18:49:14;;;;;;;11.73;7.20;;;6.10;92.80;;;6.36;56.56;99015.50;5930038;23;97908;-85
2023/12/19 19:34:20;;;;;;;8.70;5.43;;;6.70;93.10;;;7.07;56.12;99009.69;4883855;28;97153;-87
2023/12/19 21:02:02;;;;;;;13.70;8.20;;;6.80;93.30;;;7.01;56.61;98942.16;5451676;23;97745;-86
